KMZH

Moose Lake Carlton County Airport

Moose Lake, Minnesota, USA
METAR KMZH 231055Z AUTO 36008KT 10SM OVC025 M10/M13 A2993 RMK AO2
Observed Flight Rules
Jan-23 @ 10:55 UTC (51 minutes ago) Marginal Visual Flight Rules
Wind Visibility Clouds
360° at 8 knots 10 miles
  • Overcast at 2,500' AGL
Temperatures Readings
Current -10°C / 14°F
Dewpoint -13°C / 9°F
Humidity 79%
Altimeter 29.93" Hg
Pressure 1014 hPa
Elevation 328
METAR KMZH 231055Z AUTO 36008KT 10SM OVC025 M10/M13 A2993 RMK AO2
Observed Flight Rules
Jan-23 @ 10:55 UTC
(51 minutes ago)
MVFR
Wind Visibility
360° at 8 knots 10 miles
Clouds
  • Overcast at 2,500' AGL
Temperature Dewpoint
-10°C / 14°F -13°C / 9°F
Humidity Altimeter Pressure
79% 29.93" Hg 1014 hPa